createdAt,value
2022-09-10T00:01:15.817Z,66.95
2022-09-10T00:03:43.703Z,66.41
2022-09-10T00:06:11.031Z,65.45
2022-09-10T00:08:39.297Z,65.94
2022-09-10T00:11:08.583Z,65.49
2022-09-10T00:13:37.301Z,65.00
2022-09-10T00:16:05.459Z,65.61
2022-09-10T00:18:34.752Z,66.82
2022-09-10T00:21:04.905Z,67.29
2022-09-10T00:23:32.181Z,67.04
2022-09-10T00:25:59.987Z,67.42
2022-09-10T00:28:27.482Z,67.20
2022-09-10T00:30:54.968Z,67.13
2022-09-10T00:33:23.179Z,67.56
2022-09-10T00:35:50.654Z,67.12
2022-09-10T00:38:18.562Z,67.00
2022-09-10T00:40:46.365Z,67.11
2022-09-10T00:43:14.665Z,67.29
2022-09-10T00:45:44.021Z,67.31
2022-09-10T00:48:14.352Z,67.29
2022-09-10T00:50:42.369Z,66.88
2022-09-10T00:53:10.698Z,66.82
2022-09-10T00:55:38.846Z,67.82
2022-09-10T00:58:06.998Z,67.47
2022-09-10T01:00:34.380Z,66.88
2022-09-10T01:03:01.938Z,67.01
2022-09-10T01:05:29.394Z,66.63
2022-09-10T01:07:58.085Z,66.80
2022-09-10T01:10:28.033Z,66.36
2022-09-10T01:13:02.103Z,66.56
2022-09-10T01:15:41.028Z,66.26
2022-09-10T01:18:08.231Z,65.98
2022-09-10T01:20:57.533Z,66.05
2022-09-10T01:23:43.326Z,66.01
2022-09-10T01:26:20.236Z,65.89
2022-09-10T01:29:01.066Z,66.13
2022-09-10T01:31:58.550Z,65.67
2022-09-10T01:34:32.919Z,65.92
2022-09-10T01:37:04.036Z,65.62
2022-09-10T01:39:31.291Z,65.67
2022-09-10T01:41:59.313Z,65.56
2022-09-10T01:44:40.378Z,65.34
2022-09-10T01:47:14.027Z,65.03
2022-09-10T01:49:47.305Z,65.11
2022-09-10T01:52:25.526Z,64.94
2022-09-10T01:55:08.716Z,65.14
2022-09-10T01:57:44.494Z,65.87
2022-09-10T02:00:14.026Z,64.90
2022-09-10T02:02:46.017Z,64.75
2022-09-10T02:05:13.967Z,65.50
2022-09-10T02:07:42.484Z,65.52
2022-09-10T02:10:12.383Z,66.20
2022-09-10T02:12:40.330Z,66.27
2022-09-10T02:15:12.598Z,65.86
2022-09-10T02:17:42.910Z,66.20
2022-09-10T02:20:11.598Z,65.36
2022-09-10T02:22:39.887Z,65.19
2022-09-10T02:25:07.405Z,65.17
2022-09-10T02:27:35.013Z,64.91
2022-09-10T02:30:02.633Z,64.61
2022-09-10T02:32:30.067Z,63.30
2022-09-10T02:34:57.243Z,64.10
2022-09-10T02:37:27.633Z,64.39
2022-09-10T02:39:55.465Z,63.86
2022-09-10T02:42:25.488Z,63.09
2022-09-10T02:44:53.574Z,62.51
2022-09-10T02:47:20.850Z,63.00
2022-09-10T02:49:48.290Z,63.20
2022-09-10T02:52:15.935Z,64.58
2022-09-10T02:54:43.129Z,63.49
2022-09-10T02:57:12.256Z,64.57
2022-09-10T02:59:39.919Z,63.73
2022-09-10T03:02:07.274Z,63.71
2022-09-10T03:04:35.728Z,63.75
2022-09-10T03:07:03.626Z,62.75
2022-09-10T03:09:31.002Z,62.47
2022-09-10T03:11:58.388Z,62.13
2022-09-10T03:14:25.921Z,62.45
2022-09-10T03:16:53.213Z,62.69
2022-09-10T03:19:21.586Z,62.21
2022-09-10T03:21:49.244Z,63.63
2022-09-10T03:24:16.449Z,63.99
2022-09-10T03:26:45.149Z,63.13
2022-09-10T03:29:15.575Z,62.89
2022-09-10T03:31:44.937Z,62.81
2022-09-10T03:34:12.923Z,62.70
2022-09-10T03:36:41.135Z,63.34
2022-09-10T03:39:09.702Z,62.34
2022-09-10T03:41:37.514Z,62.68
2022-09-10T03:44:05.612Z,62.68
2022-09-10T03:46:32.801Z,62.00
2022-09-10T03:49:02.504Z,63.20
2022-09-10T03:51:31.140Z,63.05
2022-09-10T03:54:02.583Z,62.59
2022-09-10T03:56:30.524Z,63.08
2022-09-10T03:58:57.917Z,62.21
2022-09-10T04:01:26.791Z,61.71
2022-09-10T04:03:55.510Z,61.46
2022-09-10T04:06:24.685Z,61.58
2022-09-10T04:08:54.756Z,63.07
2022-09-10T04:11:27.493Z,62.92
2022-09-10T04:13:55.749Z,61.61
2022-09-10T04:16:23.719Z,61.19
2022-09-10T04:18:51.147Z,61.22
2022-09-10T04:21:18.870Z,60.66
2022-09-10T04:23:47.729Z,60.16
2022-09-10T04:26:15.502Z,60.15
2022-09-10T04:28:43.422Z,61.29
2022-09-10T04:31:11.146Z,60.18
2022-09-10T04:33:39.085Z,60.11
2022-09-10T04:36:06.692Z,60.53
2022-09-10T04:38:40.150Z,60.38
2022-09-10T04:41:08.167Z,60.12
2022-09-10T04:43:36.664Z,60.88
2022-09-10T04:46:04.016Z,60.54
2022-09-10T04:48:32.438Z,61.73
2022-09-10T04:51:15.636Z,60.79
2022-09-10T04:53:43.809Z,60.82
2022-09-10T04:56:12.123Z,61.43
2022-09-10T04:58:41.244Z,61.40
2022-09-10T05:01:08.923Z,61.16
2022-09-10T05:03:37.130Z,60.89
2022-09-10T05:06:06.293Z,61.62
2022-09-10T05:08:33.698Z,60.36
2022-09-10T05:11:02.949Z,61.16
2022-09-10T05:13:31.697Z,61.55
2022-09-10T05:15:59.370Z,61.06
2022-09-10T05:18:27.312Z,61.15
2022-09-10T05:20:54.800Z,60.53
2022-09-10T05:23:22.019Z,58.86
2022-09-10T05:25:50.234Z,60.05
2022-09-10T05:28:18.263Z,60.74
2022-09-10T05:30:49.459Z,60.56
2022-09-10T05:33:20.311Z,60.02
2022-09-10T05:35:53.680Z,59.54
2022-09-10T05:38:21.322Z,61.02
2022-09-10T05:40:49.026Z,60.61
2022-09-10T05:43:16.768Z,60.24
2022-09-10T05:45:44.933Z,59.45
2022-09-10T05:48:13.131Z,59.31
2022-09-10T05:50:40.848Z,58.74
2022-09-10T05:53:09.843Z,60.40
2022-09-10T05:55:37.932Z,60.17
2022-09-10T05:58:06.422Z,59.67
2022-09-10T06:00:36.593Z,58.87
2022-09-10T06:03:05.560Z,59.45
2022-09-10T06:09:24.569Z,59.03
2022-09-10T06:11:53.375Z,58.61
2022-09-10T06:14:21.000Z,58.43
2022-09-10T06:16:50.017Z,58.42
2022-09-10T06:19:17.886Z,58.06
2022-09-10T06:21:46.844Z,59.70
2022-09-10T06:24:14.483Z,59.24
2022-09-10T06:26:42.408Z,58.72
2022-09-10T06:29:11.730Z,58.84
2022-09-10T06:31:39.324Z,59.30
2022-09-10T06:34:07.509Z,59.44
2022-09-10T06:36:35.229Z,59.78
2022-09-10T06:39:03.571Z,58.92
2022-09-10T06:41:31.834Z,58.82
2022-09-10T06:44:00.416Z,59.89
2022-09-10T06:49:15.940Z,58.07
2022-09-10T06:51:44.297Z,59.94
2022-09-10T06:54:14.273Z,58.21
2022-09-10T06:56:42.858Z,58.09
2022-09-10T06:59:10.949Z,59.74
2022-09-10T07:01:39.036Z,58.88
2022-09-10T07:04:06.944Z,58.80
2022-09-10T07:06:35.695Z,60.10
2022-09-10T07:09:04.409Z,60.29
2022-09-10T07:11:33.375Z,60.42
2022-09-10T07:14:01.590Z,61.19
2022-09-10T07:16:29.604Z,61.36
2022-09-10T07:18:58.602Z,61.93
2022-09-10T07:21:28.113Z,61.57
2022-09-10T07:23:58.322Z,61.87
2022-09-10T07:26:27.198Z,64.13
2022-09-10T07:28:55.395Z,64.20
2022-09-10T07:31:24.243Z,63.92
2022-09-10T07:33:52.883Z,64.51
2022-09-10T07:36:20.496Z,64.13
2022-09-10T07:38:51.302Z,64.42
2022-09-10T07:41:21.371Z,63.78
2022-09-10T07:43:52.797Z,65.36
2022-09-10T07:46:21.213Z,64.37
2022-09-10T07:48:53.230Z,63.61
2022-09-10T07:51:21.669Z,63.09
2022-09-10T07:53:55.965Z,63.25
2022-09-10T07:56:26.148Z,63.02
2022-09-10T07:58:54.024Z,63.40
2022-09-10T08:01:21.659Z,63.19
2022-09-10T08:03:51.432Z,61.04
2022-09-10T08:06:19.531Z,61.78
2022-09-10T08:08:48.331Z,60.97
2022-09-10T08:11:17.662Z,60.53
2022-09-10T08:13:46.718Z,61.95
2022-09-10T08:16:16.254Z,61.96
2022-09-10T08:18:45.080Z,62.64
2022-09-10T08:21:13.794Z,60.86
2022-09-10T08:23:41.270Z,61.31
2022-09-10T08:26:08.958Z,60.17
2022-09-10T08:28:36.769Z,60.86
2022-09-10T08:31:07.806Z,59.34
2022-09-10T08:33:41.978Z,58.69
2022-09-10T08:36:10.601Z,58.98
2022-09-10T08:38:40.385Z,56.17
2022-09-10T08:41:21.994Z,57.97
2022-09-10T08:43:52.930Z,56.16
2022-09-10T08:46:25.036Z,54.94
2022-09-10T08:49:05.118Z,54.74
2022-09-10T08:51:34.844Z,56.79
2022-09-10T08:54:05.463Z,55.03
2022-09-10T08:56:32.853Z,55.75
2022-09-10T08:59:03.221Z,56.12
2022-09-10T09:01:51.629Z,52.98
2022-09-10T09:04:35.109Z,54.89
2022-09-10T09:07:04.459Z,53.99
2022-09-10T09:09:32.067Z,56.31
2022-09-10T09:12:03.733Z,53.89
2022-09-10T09:14:51.898Z,54.05
2022-09-10T09:17:23.021Z,55.03
2022-09-10T09:19:55.528Z,54.41
2022-09-10T09:22:40.700Z,53.40
2022-09-10T09:25:23.771Z,53.79
2022-09-10T09:27:52.625Z,53.87
2022-09-10T09:30:32.053Z,52.02
2022-09-10T09:33:03.514Z,51.61
2022-09-10T09:35:32.522Z,50.64
2022-09-10T09:38:03.918Z,51.17
2022-09-10T09:40:45.164Z,51.05
2022-09-10T09:43:12.621Z,49.58
2022-09-10T09:45:44.091Z,50.22
2022-09-10T09:48:13.300Z,49.06
2022-09-10T09:50:45.965Z,47.29
2022-09-10T09:53:25.421Z,45.23
2022-09-10T09:55:54.633Z,47.57
2022-09-10T09:58:21.901Z,44.42
2022-09-10T10:00:49.695Z,44.02
2022-09-10T10:03:27.041Z,42.68
2022-09-10T10:06:06.035Z,42.44
2022-09-10T10:08:34.274Z,40.44
2022-09-10T10:11:01.968Z,41.06
2022-09-10T10:13:39.200Z,41.05
2022-09-10T10:16:15.159Z,42.11
2022-09-10T10:18:42.819Z,41.87
2022-09-10T10:21:10.430Z,41.67
2022-09-10T10:23:38.160Z,42.71
2022-09-10T10:26:24.069Z,40.64
2022-09-10T10:28:52.515Z,39.93
2022-09-10T10:31:20.109Z,41.37
2022-09-10T10:34:01.072Z,40.09
2022-09-10T10:36:36.316Z,40.94
2022-09-10T10:39:03.560Z,41.42
2022-09-10T10:41:34.242Z,39.41
2022-09-10T10:44:17.182Z,38.94
2022-09-10T10:46:54.001Z,37.93
2022-09-10T10:49:25.977Z,39.78
2022-09-10T10:52:00.236Z,37.32
2022-09-10T10:54:46.506Z,37.73
2022-09-10T10:57:17.114Z,36.62
2022-09-10T10:59:48.138Z,37.08
2022-09-10T11:02:15.633Z,36.66
2022-09-10T11:04:50.465Z,35.36
2022-09-10T11:07:32.887Z,35.59
2022-09-10T11:10:01.731Z,34.88
2022-09-10T11:12:34.002Z,36.56
2022-09-10T11:15:19.885Z,35.20
2022-09-10T11:17:55.461Z,34.27
2022-09-10T11:20:33.481Z,33.85
2022-09-10T11:23:01.160Z,34.02
2022-09-10T11:25:29.667Z,33.63
2022-09-10T11:27:59.481Z,35.90
2022-09-10T11:30:26.981Z,34.80
2022-09-10T11:33:01.774Z,35.88
2022-09-10T11:35:29.951Z,38.64
2022-09-10T11:38:01.207Z,35.69
2022-09-10T11:40:28.855Z,35.47
2022-09-10T11:42:56.962Z,37.70
2022-09-10T11:45:43.352Z,37.10
2022-09-10T11:48:11.294Z,35.91
2022-09-10T11:50:41.717Z,34.27
2022-09-10T11:53:11.654Z,35.26
2022-09-10T11:55:59.807Z,34.36
2022-09-10T11:58:38.746Z,34.87
2022-09-10T12:01:25.853Z,34.36
2022-09-10T12:03:58.108Z,33.46
2022-09-10T12:06:32.316Z,32.52
2022-09-10T12:08:59.933Z,32.35
2022-09-10T12:11:33.572Z,33.23
2022-09-10T12:14:05.847Z,33.84
2022-09-10T12:16:34.963Z,33.18
2022-09-10T12:19:05.005Z,32.46
2022-09-10T12:21:34.348Z,35.14
2022-09-10T12:24:02.341Z,32.48
2022-09-10T12:26:30.054Z,33.07
2022-09-10T12:28:59.302Z,32.80
2022-09-10T12:31:27.770Z,32.39
2022-09-10T12:33:57.720Z,32.75
2022-09-10T12:36:27.899Z,31.23
2022-09-10T12:39:16.384Z,32.47
2022-09-10T12:41:43.609Z,33.07
2022-09-10T12:44:28.287Z,32.38
2022-09-10T12:47:18.852Z,34.35
2022-09-10T12:49:46.923Z,33.25
2022-09-10T12:52:15.413Z,33.98
2022-09-10T12:54:52.624Z,35.44
2022-09-10T12:57:26.325Z,35.03
2022-09-10T13:00:13.094Z,34.70
2022-09-10T13:02:51.613Z,32.33
2022-09-10T13:05:21.738Z,35.40
2022-09-10T13:07:55.943Z,34.85
2022-09-10T13:10:24.313Z,32.81
2022-09-10T13:12:55.192Z,33.87
2022-09-10T13:15:27.465Z,33.93
2022-09-10T13:17:55.141Z,34.80
2022-09-10T13:20:22.432Z,36.06
2022-09-10T13:22:54.548Z,35.70
2022-09-10T13:25:36.637Z,36.84
2022-09-10T13:28:18.069Z,35.74
2022-09-10T13:30:45.821Z,36.14
2022-09-10T13:33:17.697Z,34.20
2022-09-10T13:36:06.395Z,33.83
2022-09-10T13:38:36.964Z,33.47
2022-09-10T13:41:04.592Z,33.60
2022-09-10T13:43:44.791Z,33.86
2022-09-10T13:46:12.939Z,33.30
2022-09-10T13:48:49.455Z,33.43
2022-09-10T13:51:20.721Z,33.33
2022-09-10T13:53:49.190Z,34.01
2022-09-10T13:56:19.954Z,34.30
2022-09-10T13:58:48.564Z,33.54
2022-09-10T14:01:15.990Z,34.79
2022-09-10T14:03:45.425Z,34.89
2022-09-10T14:06:19.337Z,33.87
2022-09-10T14:08:51.118Z,34.39
2022-09-10T14:11:19.778Z,34.00
2022-09-10T14:14:07.669Z,34.22
2022-09-10T14:16:40.966Z,33.91
2022-09-10T14:19:28.955Z,34.88
2022-09-10T14:21:57.752Z,33.65
2022-09-10T14:24:33.653Z,33.24
2022-09-10T14:27:04.840Z,33.96
2022-09-10T14:29:32.691Z,33.03
2022-09-10T14:32:15.823Z,34.95
2022-09-10T14:34:43.370Z,33.93
2022-09-10T14:37:26.077Z,34.42
2022-09-10T14:39:53.752Z,34.20
2022-09-10T14:42:27.145Z,34.06
2022-09-10T14:44:54.850Z,34.35
2022-09-10T14:47:35.808Z,35.57
2022-09-10T14:50:22.785Z,34.84
2022-09-10T14:52:50.197Z,34.89
2022-09-10T14:55:18.304Z,33.99
2022-09-10T14:57:45.947Z,33.40
2022-09-10T15:00:13.845Z,34.33
2022-09-10T15:02:41.601Z,33.51
2022-09-10T15:05:16.164Z,35.22
2022-09-10T15:07:44.418Z,33.59
2022-09-10T15:10:12.228Z,32.83
2022-09-10T15:12:39.860Z,34.37
2022-09-10T15:15:16.426Z,34.15
2022-09-10T15:17:44.470Z,33.52
2022-09-10T15:20:13.383Z,34.37
2022-09-10T15:22:40.725Z,34.65
2022-09-10T15:25:10.893Z,34.88
2022-09-10T15:27:39.047Z,34.52
2022-09-10T15:30:06.726Z,33.73
2022-09-10T15:32:33.947Z,34.81
2022-09-10T15:35:01.448Z,33.92
2022-09-10T15:37:28.683Z,33.94
2022-09-10T15:39:58.492Z,33.51
2022-09-10T15:42:26.133Z,33.67
2022-09-10T15:44:53.970Z,33.82
2022-09-10T15:47:21.438Z,34.41
2022-09-10T15:49:48.979Z,33.74
2022-09-10T15:52:16.248Z,34.09
2022-09-10T15:54:43.938Z,33.60
2022-09-10T15:57:11.730Z,34.02
2022-09-10T15:59:39.150Z,34.17
2022-09-10T16:02:06.584Z,33.88
2022-09-10T16:04:36.659Z,35.77
2022-09-10T16:07:05.115Z,34.49
2022-09-10T16:09:32.891Z,35.21
2022-09-10T16:12:00.874Z,36.07
2022-09-10T16:14:28.253Z,35.36
2022-09-10T16:16:56.839Z,35.19
2022-09-10T16:19:24.477Z,35.60
2022-09-10T16:21:53.064Z,35.94
2022-09-10T16:24:20.408Z,36.37
2022-09-10T16:26:49.245Z,36.12
2022-09-10T16:29:17.391Z,37.35
2022-09-10T16:31:48.345Z,36.82
2022-09-10T16:34:18.541Z,37.89
2022-09-10T16:36:46.219Z,37.68
2022-09-10T16:39:14.079Z,37.29
2022-09-10T16:41:42.691Z,39.63
2022-09-10T16:44:11.187Z,37.67
2022-09-10T16:46:38.768Z,37.42
2022-09-10T16:49:08.189Z,37.42
2022-09-10T16:51:36.659Z,37.72
2022-09-10T16:54:04.614Z,38.10
2022-09-10T16:56:42.352Z,38.47
2022-09-10T16:59:20.388Z,39.56
2022-09-10T17:01:48.656Z,38.57
2022-09-10T17:04:24.643Z,39.02
2022-09-10T17:07:32.824Z,38.69
2022-09-10T17:10:01.031Z,38.55
2022-09-10T17:12:29.530Z,38.82
2022-09-10T17:14:59.750Z,39.21
2022-09-10T17:17:27.341Z,39.98
2022-09-10T17:19:54.876Z,40.53
2022-09-10T17:22:22.761Z,40.37
2022-09-10T17:24:50.527Z,40.35
2022-09-10T17:27:19.211Z,39.77
2022-09-10T17:29:49.795Z,39.69
2022-09-10T17:32:17.102Z,40.81
2022-09-10T17:34:44.982Z,40.13
2022-09-10T17:37:12.356Z,39.68
2022-09-10T17:39:39.600Z,39.97
2022-09-10T17:42:07.226Z,39.63
2022-09-10T17:44:34.454Z,39.54
2022-09-10T17:47:01.630Z,38.93
2022-09-10T17:49:29.118Z,38.29
2022-09-10T17:51:56.765Z,39.26
2022-09-10T17:57:53.637Z,38.71
2022-09-10T18:00:21.167Z,40.00
2022-09-10T18:02:48.791Z,39.38
2022-09-10T18:05:16.109Z,38.35
2022-09-10T18:07:44.675Z,39.50
2022-09-10T18:10:12.243Z,40.19
2022-09-10T18:12:39.458Z,39.88
2022-09-10T18:15:06.857Z,41.08
2022-09-10T18:17:34.494Z,41.30
2022-09-10T18:20:02.774Z,40.96
2022-09-10T18:22:30.118Z,41.63
2022-09-10T18:24:57.762Z,41.60
2022-09-10T18:27:26.416Z,41.66
2022-09-10T18:29:54.083Z,42.26
2022-09-10T18:32:21.926Z,42.43
2022-09-10T18:34:49.186Z,41.92
2022-09-10T18:37:16.414Z,42.69
2022-09-10T18:39:43.987Z,42.59
2022-09-10T18:42:11.452Z,43.49
2022-09-10T18:44:38.958Z,43.29
2022-09-10T18:47:17.870Z,44.13
2022-09-10T18:49:55.149Z,43.82
2022-09-10T18:52:24.841Z,45.13
2022-09-10T18:54:52.115Z,45.58
2022-09-10T18:57:19.352Z,45.08
2022-09-10T18:59:47.701Z,45.72
2022-09-10T19:02:15.593Z,45.33
2022-09-10T19:05:00.740Z,45.99
2022-09-10T19:07:31.046Z,46.43
2022-09-10T19:10:00.447Z,47.88
2022-09-10T19:12:27.714Z,48.03
2022-09-10T19:14:55.334Z,48.52
2022-09-10T19:17:22.911Z,47.92
2022-09-10T19:19:50.423Z,48.39
2022-09-10T19:22:18.411Z,48.04
2022-09-10T19:25:01.036Z,47.91
2022-09-10T19:27:29.467Z,48.71
2022-09-10T19:29:59.490Z,48.85
2022-09-10T19:32:26.928Z,49.39
2022-09-10T19:34:55.600Z,48.98
2022-09-10T19:37:23.006Z,48.96
2022-09-10T19:39:50.513Z,49.25
2022-09-10T19:42:18.094Z,49.18
2022-09-10T19:44:46.309Z,49.04
2022-09-10T19:47:13.862Z,49.47
2022-09-10T19:49:41.496Z,49.24
2022-09-10T19:52:11.039Z,50.04
2022-09-10T19:54:38.800Z,50.09
2022-09-10T19:57:06.411Z,50.54
2022-09-10T19:59:33.596Z,50.77
2022-09-10T20:02:01.057Z,51.21
2022-09-10T20:04:29.458Z,51.18
2022-09-10T20:06:56.803Z,51.41
2022-09-10T20:09:24.551Z,52.42
2022-09-10T20:11:52.379Z,51.72
2022-09-10T20:14:20.405Z,51.53
2022-09-10T20:16:47.662Z,51.52
2022-09-10T20:19:21.584Z,51.41
2022-09-10T20:21:49.012Z,52.51
2022-09-10T20:24:16.716Z,52.84
2022-09-10T20:26:45.417Z,54.55
2022-09-10T20:29:13.793Z,53.85
2022-09-10T20:31:41.774Z,54.13
2022-09-10T20:34:15.601Z,54.02
2022-09-10T20:36:43.282Z,53.88
2022-09-10T20:39:14.369Z,54.28
2022-09-10T20:41:42.304Z,54.57
2022-09-10T20:44:10.471Z,53.99
2022-09-10T20:46:38.242Z,53.37
2022-09-10T20:49:05.514Z,54.42
2022-09-10T20:51:38.798Z,54.10
2022-09-10T20:54:07.287Z,54.20
2022-09-10T20:56:36.131Z,54.05
2022-09-10T20:59:03.593Z,54.50
2022-09-10T21:01:31.963Z,54.05
2022-09-10T21:04:01.281Z,53.92
2022-09-10T21:06:29.325Z,54.22
2022-09-10T21:08:56.676Z,53.90
2022-09-10T21:11:28.570Z,52.76
2022-09-10T21:13:57.036Z,53.98
2022-09-10T21:16:28.341Z,54.35
2022-09-10T21:18:56.650Z,54.40
2022-09-10T21:21:25.787Z,54.44
2022-09-10T21:23:54.266Z,54.01
2022-09-10T21:26:22.227Z,54.28
2022-09-10T21:28:52.831Z,54.59
2022-09-10T21:31:20.370Z,54.40
2022-09-10T21:33:47.607Z,54.38
2022-09-10T21:36:16.150Z,55.01
2022-09-10T21:38:48.268Z,55.73
2022-09-10T21:41:16.818Z,55.40
2022-09-10T21:43:44.863Z,56.12
2022-09-10T21:46:13.587Z,56.21
2022-09-10T21:48:42.329Z,55.94
2022-09-10T21:51:14.513Z,55.55
2022-09-10T21:53:42.334Z,55.69
2022-09-10T21:56:13.495Z,55.74
2022-09-10T21:58:40.846Z,55.93
2022-09-10T22:01:09.144Z,56.12
2022-09-10T22:03:39.999Z,57.71
2022-09-10T22:06:12.366Z,56.57
2022-09-10T22:08:41.224Z,56.05
2022-09-10T22:11:09.860Z,56.47
2022-09-10T22:13:37.988Z,55.91
2022-09-10T22:16:06.121Z,55.53
2022-09-10T22:18:41.971Z,55.73
2022-09-10T22:21:10.219Z,55.62
2022-09-10T22:23:38.230Z,56.17
2022-09-10T22:26:06.563Z,56.39
2022-09-10T22:28:35.048Z,55.75
2022-09-10T22:31:07.178Z,55.81
2022-09-10T22:33:35.155Z,56.36
2022-09-10T22:36:31.005Z,56.87
2022-09-10T22:38:59.640Z,57.56
2022-09-10T22:41:27.214Z,56.89
2022-09-10T22:43:54.595Z,57.56
2022-09-10T22:46:24.142Z,57.76
2022-09-10T22:48:51.409Z,56.88
2022-09-10T22:51:20.123Z,57.04
2022-09-10T22:53:48.164Z,56.89
2022-09-10T22:56:20.671Z,56.98
2022-09-10T22:58:51.606Z,57.13
2022-09-10T23:01:19.848Z,57.60
2022-09-10T23:03:49.331Z,57.50
2022-09-10T23:06:18.188Z,57.09
2022-09-10T23:08:46.347Z,58.28
2022-09-10T23:11:15.265Z,57.57
2022-09-10T23:13:43.517Z,58.42
2022-09-10T23:16:15.053Z,57.96
2022-09-10T23:18:42.905Z,57.92
2022-09-10T23:21:10.214Z,58.55
2022-09-10T23:23:37.533Z,58.32
2022-09-10T23:26:06.303Z,58.42
2022-09-10T23:28:33.524Z,58.36
2022-09-10T23:31:06.782Z,58.62
2022-09-10T23:33:34.514Z,59.27
2022-09-10T23:36:03.223Z,59.10
2022-09-10T23:38:31.548Z,58.99
2022-09-10T23:41:00.169Z,59.24
2022-09-10T23:43:27.673Z,59.71
2022-09-10T23:45:55.289Z,60.71
2022-09-10T23:48:24.567Z,61.42
2022-09-10T23:50:52.091Z,60.34
2022-09-10T23:53:19.650Z,60.94
2022-09-10T23:55:47.389Z,60.93
2022-09-10T23:58:15.465Z,60.44
